Time;durP1;ratioP1;P1;durP2;ratioP2;P2;SDS_P1;SDS_P2;PMS_P1;PMS_P2;Temp;Humidity;BMP_temperature;BMP_pressure;BME280_temperature;BME280_humidity;BME280_pressure;Samples;Min_cycle;Max_cycle;Signal;HPM_P1;HPM_P2
2023/08/01 00:01:36;;;;;;;;;;;14.80;99.90;;;;;;5054797;28;19956;-86
2023/08/01 00:04:02;;;;;;;;;;;14.80;99.90;;;;;;5054963;28;20006;-86
2023/08/01 00:06:27;;;;;;;;;;;14.80;99.90;;;;;;5054850;28;19908;-86
2023/08/01 00:09:21;;;;;;;;;;;14.80;99.90;;;;;;5055164;28;19908;-87
2023/08/01 00:11:47;;;;;;;;;;;14.80;99.90;;;;;;5054725;28;19909;-86
2023/08/01 00:14:12;;;;;;;;;;;14.80;99.90;;;;;;5038286;28;19909;-86
2023/08/01 00:16:38;;;;;;;;;;;14.80;99.90;;;;;;5038005;28;19954;-87
2023/08/01 00:19:03;;;;;;;;;;;14.80;99.90;;;;;;5055113;28;19935;-88
2023/08/01 00:21:31;;;;;;;;;;;14.80;99.90;;;;;;5038101;28;19909;-87
2023/08/01 00:27:26;;;;;;;;;;;14.80;99.90;;;;;;5053530;28;19920;-86
2023/08/01 00:29:51;;;;;;;;;;;14.80;99.90;;;;;;5037803;28;19916;-86
2023/08/01 00:32:17;;;;;;;;;;;14.80;99.90;;;;;;5054310;28;20291;-86
2023/08/01 00:34:43;;;;;;;;;;;14.80;99.90;;;;;;5054410;28;19924;-86
2023/08/01 00:37:08;;;;;;;;;;;14.80;99.90;;;;;;5037568;28;19917;-86
2023/08/01 00:39:34;;;;;;;;;;;14.80;99.90;;;;;;5054326;28;20268;-86
2023/08/01 00:42:00;;;;;;;;;;;14.80;99.90;;;;;;5037511;28;19920;-86
2023/08/01 00:44:25;;;;;;;;;;;14.90;99.90;;;;;;5054055;28;19908;-86
2023/08/01 00:46:51;;;;;;;;;;;14.80;99.90;;;;;;5037464;28;19924;-86
2023/08/01 00:49:17;;;;;;;;;;;14.80;99.90;;;;;;5053897;28;19909;-86
2023/08/01 00:51:43;;;;;;;;;;;14.80;99.90;;;;;;5053586;28;19939;-86
2023/08/01 00:54:43;;;;;;;;;;;14.80;99.90;;;;;;5054230;28;19962;-86
2023/08/01 00:57:09;;;;;;;;;;;14.80;99.90;;;;;;5036829;28;20195;-86
2023/08/01 00:59:35;;;;;;;;;;;14.80;99.90;;;;;;5053396;28;19915;-86
2023/08/01 01:02:01;;;;;;;;;;;14.80;99.90;;;;;;5053691;28;20344;-86
2023/08/01 01:04:27;;;;;;;;;;;14.80;99.90;;;;;;5036524;28;19951;-86
2023/08/01 01:06:59;;;;;;;;;;;14.80;99.90;;;;;;5036540;28;20397;-86
2023/08/01 01:09:28;;;;;;;;;;;14.80;99.90;;;;;;5037117;28;20368;-87
2023/08/01 01:11:53;;;;;;;;;;;14.90;99.90;;;;;;5070509;28;19920;-87
2023/08/01 01:14:19;;;;;;;;;;;14.80;99.90;;;;;;5053481;28;19999;-86
2023/08/01 01:16:44;;;;;;;;;;;14.80;99.90;;;;;;5053741;28;19919;-86
2023/08/01 01:19:10;;;;;;;;;;;14.90;99.90;;;;;;5036728;28;20050;-86
2023/08/01 01:21:37;;;;;;;;;;;14.90;99.90;;;;;;5053208;28;20252;-85
2023/08/01 01:24:04;;;;;;;;;;;14.80;99.90;;;;;;5036276;28;20364;-86
2023/08/01 01:26:31;;;;;;;;;;;14.80;99.90;;;;;;5053239;28;20291;-86
2023/08/01 01:28:56;;;;;;;;;;;14.80;99.90;;;;;;5054421;28;19982;-86
2023/08/01 01:31:23;;;;;;;;;;;14.80;99.90;;;;;;5086506;28;19954;-86
2023/08/01 01:33:49;;;;;;;;;;;14.80;99.90;;;;;;5036581;28;19920;-86
2023/08/01 01:39:43;;;;;;;;;;;14.80;99.90;;;;;;5053044;28;20283;-87
2023/08/01 01:42:08;;;;;;;;;;;14.80;99.90;;;;;;5036597;28;19913;-87
2023/08/01 01:44:34;;;;;;;;;;;14.80;99.90;;;;;;5052898;28;19975;-86
2023/08/01 01:46:59;;;;;;;;;;;14.70;99.90;;;;;;5052847;28;20050;-86
2023/08/01 01:49:43;;;;;;;;;;;14.80;99.90;;;;;;5052678;28;20295;-86
2023/08/01 01:52:09;;;;;;;;;;;14.80;99.90;;;;;;5036036;28;19909;-86
2023/08/01 01:54:35;;;;;;;;;;;14.70;99.90;;;;;;5036011;28;19908;-87
2023/08/01 01:57:28;;;;;;;;;;;14.80;99.90;;;;;;5052656;28;19905;-88
2023/08/01 01:59:54;;;;;;;;;;;14.80;99.90;;;;;;5051443;28;19913;-87
2023/08/01 02:02:20;;;;;;;;;;;14.80;99.90;;;;;;5053013;28;19915;-87
2023/08/01 02:04:46;;;;;;;;;;;14.80;99.90;;;;;;5035699;28;19965;-87
2023/08/01 02:07:11;;;;;;;;;;;14.80;99.90;;;;;;5035761;28;19909;-86
2023/08/01 02:09:37;;;;;;;;;;;14.80;99.90;;;;;;5035431;28;19959;-88
2023/08/01 02:12:04;;;;;;;;;;;14.80;99.90;;;;;;5036211;28;19916;-87
2023/08/01 02:14:30;;;;;;;;;;;14.80;99.90;;;;;;5035864;28;20001;-87
2023/08/01 02:16:55;;;;;;;;;;;14.80;99.90;;;;;;5051911;28;19952;-87
2023/08/01 02:19:21;;;;;;;;;;;14.80;99.90;;;;;;5035555;28;20432;-86
2023/08/01 02:21:47;;;;;;;;;;;14.80;99.90;;;;;;5052403;28;19932;-87
2023/08/01 02:24:12;;;;;;;;;;;14.80;99.90;;;;;;5035586;28;19920;-87
2023/08/01 02:26:38;;;;;;;;;;;14.80;99.90;;;;;;5036061;28;19909;-88
2023/08/01 02:29:04;;;;;;;;;;;14.80;99.90;;;;;;5035846;28;19936;-86
2023/08/01 02:31:29;;;;;;;;;;;14.80;99.90;;;;;;5052232;28;19908;-87
2023/08/01 02:33:55;;;;;;;;;;;14.80;99.90;;;;;;5035568;28;20269;-87
2023/08/01 02:36:20;;;;;;;;;;;14.80;99.90;;;;;;5052344;28;19909;-87
2023/08/01 02:38:46;;;;;;;;;;;14.80;99.90;;;;;;5035063;28;19913;-88
2023/08/01 02:41:11;;;;;;;;;;;14.80;99.90;;;;;;5034932;28;19916;-87
2023/08/01 02:43:37;;;;;;;;;;;14.80;99.90;;;;;;5051758;28;19920;-87
2023/08/01 02:46:03;;;;;;;;;;;14.80;99.90;;;;;;5035401;28;19954;-88
2023/08/01 02:48:28;;;;;;;;;;;14.80;99.90;;;;;;5035049;28;19908;-87
2023/08/01 02:50:54;;;;;;;;;;;14.80;99.90;;;;;;5051843;28;19920;-88
2023/08/01 02:53:19;;;;;;;;;;;14.80;99.90;;;;;;5035486;28;19958;-87
2023/08/01 02:55:48;;;;;;;;;;;14.90;99.90;;;;;;5052467;28;19915;-87
2023/08/01 02:58:14;;;;;;;;;;;14.90;99.90;;;;;;5035314;28;20327;-87
2023/08/01 03:00:40;;;;;;;;;;;14.90;99.90;;;;;;5051785;28;19909;-87
2023/08/01 03:03:06;;;;;;;;;;;14.90;99.90;;;;;;5035916;28;19912;-86
2023/08/01 03:05:32;;;;;;;;;;;14.90;99.90;;;;;;5051732;28;19908;-87
2023/08/01 03:07:58;;;;;;;;;;;14.90;99.90;;;;;;5035236;28;19909;-87
2023/08/01 03:10:24;;;;;;;;;;;14.90;99.90;;;;;;5051965;28;19935;-86
2023/08/01 03:12:49;;;;;;;;;;;14.90;99.90;;;;;;5051623;28;19936;-87
2023/08/01 03:15:15;;;;;;;;;;;14.90;99.90;;;;;;5035151;28;19913;-87
2023/08/01 03:17:40;;;;;;;;;;;14.90;99.90;;;;;;5035359;28;19991;-86
2023/08/01 03:20:10;;;;;;;;;;;14.90;99.90;;;;;;5035265;28;19908;-87
2023/08/01 03:22:40;;;;;;;;;;;14.90;99.90;;;;;;5035127;28;20008;-88
2023/08/01 03:25:09;;;;;;;;;;;14.90;99.90;;;;;;5068487;28;19912;-87
2023/08/01 03:27:35;;;;;;;;;;;14.90;99.90;;;;;;5051752;28;19991;-88
2023/08/01 03:30:01;;;;;;;;;;;14.90;99.90;;;;;;5038672;28;20025;-88
2023/08/01 03:32:26;;;;;;;;;;;15.00;99.90;;;;;;5038677;28;19915;-87
2023/08/01 03:34:52;;;;;;;;;;;14.90;99.90;;;;;;5055615;28;19920;-86
2023/08/01 03:37:18;;;;;;;;;;;14.90;99.90;;;;;;5038545;28;19909;-87
2023/08/01 03:39:43;;;;;;;;;;;14.90;99.90;;;;;;5054995;28;19932;-87
2023/08/01 03:42:09;;;;;;;;;;;14.90;99.90;;;;;;5038258;28;19966;-87
2023/08/01 03:44:34;;;;;;;;;;;14.90;99.90;;;;;;5038665;28;19917;-86
2023/08/01 03:47:00;;;;;;;;;;;14.90;99.90;;;;;;5054833;28;20500;-87
2023/08/01 03:49:26;;;;;;;;;;;14.90;99.90;;;;;;5038871;28;19909;-86
2023/08/01 03:51:53;;;;;;;;;;;14.90;99.90;;;;;;5038507;28;19975;-88
2023/08/01 03:54:37;;;;;;;;;;;14.90;99.90;;;;;;5038575;28;19904;-87
2023/08/01 03:57:02;;;;;;;;;;;14.90;99.90;;;;;;5064133;28;19924;-87
2023/08/01 03:59:28;;;;;;;;;;;14.90;99.90;;;;;;5038291;28;20310;-88
2023/08/01 04:01:54;;;;;;;;;;;14.90;99.90;;;;;;5054759;28;20088;-88
2023/08/01 04:04:48;;;;;;;;;;;14.90;99.90;;;;;;5038323;28;19912;-88
2023/08/01 04:07:13;;;;;;;;;;;14.90;99.90;;;;;;5071980;28;19916;-88
2023/08/01 04:09:39;;;;;;;;;;;14.90;99.90;;;;;;5054324;28;19908;-88
2023/08/01 04:12:06;;;;;;;;;;;14.90;99.90;;;;;;5054280;28;20318;-88
2023/08/01 04:14:32;;;;;;;;;;;14.90;99.90;;;;;;5037657;28;19924;-87
2023/08/01 04:16:57;;;;;;;;;;;14.90;99.90;;;;;;5054600;28;19909;-87
2023/08/01 04:19:24;;;;;;;;;;;14.90;99.90;;;;;;5037643;28;20319;-87
2023/08/01 04:21:50;;;;;;;;;;;14.90;99.90;;;;;;5054750;28;19908;-88
2023/08/01 04:24:16;;;;;;;;;;;14.90;99.90;;;;;;5037782;28;20248;-86
2023/08/01 04:26:41;;;;;;;;;;;14.90;99.90;;;;;;5055319;28;19912;-88
2023/08/01 04:29:07;;;;;;;;;;;14.90;99.90;;;;;;5037559;28;21096;-87
2023/08/01 04:31:32;;;;;;;;;;;14.90;99.90;;;;;;5054255;28;19905;-88
2023/08/01 04:34:03;;;;;;;;;;;14.80;99.90;;;;;;5037479;28;19931;-88
2023/08/01 04:36:29;;;;;;;;;;;14.90;99.90;;;;;;5037621;28;19916;-88
2023/08/01 04:38:54;;;;;;;;;;;14.90;99.90;;;;;;5053930;28;19908;-87
2023/08/01 04:41:20;;;;;;;;;;;14.80;99.90;;;;;;5037210;28;19956;-88
2023/08/01 04:43:45;;;;;;;;;;;14.80;99.90;;;;;;5037313;28;19912;-88
2023/08/01 04:46:11;;;;;;;;;;;14.80;99.90;;;;;;5037389;28;20378;-88
2023/08/01 04:48:37;;;;;;;;;;;14.80;99.90;;;;;;5037329;28;20386;-87
2023/08/01 04:51:03;;;;;;;;;;;14.90;99.90;;;;;;5053933;28;19915;-89
2023/08/01 04:53:28;;;;;;;;;;;14.80;99.90;;;;;;5036844;28;19909;-87
2023/08/01 04:55:54;;;;;;;;;;;14.80;99.90;;;;;;5054082;28;19958;-88
2023/08/01 04:58:19;;;;;;;;;;;14.80;99.90;;;;;;5037214;28;19909;-88
2023/08/01 05:00:45;;;;;;;;;;;14.80;99.90;;;;;;5070580;28;20475;-88
2023/08/01 05:03:10;;;;;;;;;;;14.80;99.90;;;;;;5036473;28;19921;-88
2023/08/01 05:05:36;;;;;;;;;;;14.80;99.90;;;;;;5086550;28;19947;-88
2023/08/01 05:08:01;;;;;;;;;;;14.80;99.90;;;;;;5036750;28;20284;-88
2023/08/01 05:10:27;;;;;;;;;;;14.80;99.90;;;;;;5037872;28;20002;-88
2023/08/01 05:12:53;;;;;;;;;;;14.80;99.90;;;;;;5037166;28;19909;-88
2023/08/01 05:15:18;;;;;;;;;;;14.80;99.90;;;;;;5054173;28;19908;-89
2023/08/01 05:17:44;;;;;;;;;;;14.80;99.90;;;;;;5037276;28;19923;-89
2023/08/01 05:20:10;;;;;;;;;;;14.80;99.90;;;;;;5053828;28;20335;-88
2023/08/01 05:22:35;;;;;;;;;;;14.70;99.90;;;;;;5037520;28;19919;-91
2023/08/01 05:25:01;;;;;;;;;;;14.70;99.90;;;;;;5054020;28;19916;-90
2023/08/01 05:27:27;;;;;;;;;;;14.80;99.90;;;;;;5036887;28;19955;-91
2023/08/01 05:29:53;;;;;;;;;;;14.80;99.90;;;;;;5053593;28;19908;-90
2023/08/01 05:32:18;;;;;;;;;;;14.70;99.90;;;;;;5036369;28;20275;-88
2023/08/01 05:34:44;;;;;;;;;;;14.60;99.90;;;;;;5031033;28;19913;-90
2023/08/01 05:37:10;;;;;;;;;;;14.70;99.90;;;;;;5035307;28;19909;-88
2023/08/01 05:39:35;;;;;;;;;;;14.60;99.90;;;;;;5035348;28;19924;-90
2023/08/01 05:42:01;;;;;;;;;;;14.60;99.90;;;;;;5035642;28;19999;-91
2023/08/01 05:44:27;;;;;;;;;;;14.60;99.90;;;;;;5035251;28;19908;-87
2023/08/01 05:46:52;;;;;;;;;;;14.60;99.90;;;;;;5049606;28;20335;-92
2023/08/01 05:49:18;;;;;;;;;;;14.50;99.90;;;;;;5036806;28;19962;-87
2023/08/01 05:51:44;;;;;;;;;;;14.40;99.90;;;;;;5035063;28;19916;-91
2023/08/01 05:54:09;;;;;;;;;;;14.40;99.90;;;;;;5061650;28;19913;-89
2023/08/01 05:56:35;;;;;;;;;;;14.40;99.90;;;;;;5033745;28;19913;-89
2023/08/01 05:59:01;;;;;;;;;;;14.40;99.90;;;;;;5042650;28;19963;-88
2023/08/01 06:01:26;;;;;;;;;;;14.40;99.90;;;;;;5032451;28;20122;-90
2023/08/01 06:03:52;;;;;;;;;;;14.30;99.90;;;;;;5068915;28;19918;-92
2023/08/01 06:06:17;;;;;;;;;;;14.30;99.90;;;;;;5046408;28;19940;-91
2023/08/01 06:08:43;;;;;;;;;;;14.30;99.90;;;;;;5046171;28;19915;-89
2023/08/01 06:11:09;;;;;;;;;;;14.30;99.90;;;;;;5034410;28;19916;-90
2023/08/01 06:13:35;;;;;;;;;;;14.20;99.90;;;;;;5035927;28;19923;-88
2023/08/01 06:16:00;;;;;;;;;;;14.20;99.90;;;;;;5045289;28;20000;-88
2023/08/01 06:18:26;;;;;;;;;;;14.20;99.90;;;;;;5031980;28;19905;-88
2023/08/01 06:20:54;;;;;;;;;;;14.20;99.90;;;;;;5064595;28;19923;-88
2023/08/01 06:23:20;;;;;;;;;;;14.20;99.90;;;;;;5034778;28;19913;-88
2023/08/01 06:25:46;;;;;;;;;;;14.20;99.90;;;;;;5051977;28;19909;-89
2023/08/01 06:28:12;;;;;;;;;;;14.20;99.90;;;;;;5083734;28;19909;-87
2023/08/01 06:30:37;;;;;;;;;;;14.20;99.90;;;;;;5031614;28;19976;-89
2023/08/01 06:33:03;;;;;;;;;;;14.20;99.90;;;;;;5065015;28;19930;-88
2023/08/01 06:35:28;;;;;;;;;;;14.20;99.90;;;;;;5035836;28;19991;-90
2023/08/01 06:37:54;;;;;;;;;;;14.20;99.90;;;;;;5050428;28;20020;-88
2023/08/01 06:40:20;;;;;;;;;;;14.30;99.90;;;;;;5046021;28;19912;-88
2023/08/01 06:42:46;;;;;;;;;;;14.30;99.90;;;;;;5060364;28;20356;-87
2023/08/01 06:45:11;;;;;;;;;;;14.30;99.90;;;;;;5045478;28;19909;-88
2023/08/01 06:47:37;;;;;;;;;;;14.40;99.90;;;;;;5034849;28;19909;-89
2023/08/01 06:50:04;;;;;;;;;;;14.40;99.90;;;;;;5049279;28;19917;-88
2023/08/01 06:52:30;;;;;;;;;;;14.40;99.90;;;;;;5034804;28;19909;-89
2023/08/01 06:54:55;;;;;;;;;;;14.40;99.90;;;;;;5034679;28;19909;-88
2023/08/01 06:57:21;;;;;;;;;;;14.40;99.90;;;;;;5035044;28;19909;-88
2023/08/01 06:59:47;;;;;;;;;;;14.40;99.90;;;;;;5036759;28;19909;-88
2023/08/01 07:02:12;;;;;;;;;;;14.40;99.90;;;;;;5035087;28;20271;-88
2023/08/01 07:04:38;;;;;;;;;;;14.40;99.90;;;;;;5052095;28;19909;-89
2023/08/01 07:07:04;;;;;;;;;;;14.50;99.90;;;;;;5053743;28;19908;-89
2023/08/01 07:09:29;;;;;;;;;;;14.50;99.90;;;;;;5038078;28;19916;-88
2023/08/01 07:11:55;;;;;;;;;;;14.60;99.90;;;;;;5039603;28;19958;-89
2023/08/01 07:14:21;;;;;;;;;;;14.60;99.90;;;;;;5037945;28;20011;-89
2023/08/01 07:16:47;;;;;;;;;;;14.50;99.90;;;;;;5049701;28;20350;-87
2023/08/01 07:19:13;;;;;;;;;;;14.50;99.90;;;;;;5039499;28;19909;-89
2023/08/01 07:21:39;;;;;;;;;;;14.60;99.90;;;;;;5038961;28;19909;-87
2023/08/01 07:24:04;;;;;;;;;;;14.60;99.90;;;;;;5038715;28;19932;-89
2023/08/01 07:26:30;;;;;;;;;;;14.60;99.90;;;;;;5035713;28;19944;-89
2023/08/01 07:28:56;;;;;;;;;;;14.60;99.90;;;;;;5049664;28;20402;-89
2023/08/01 07:31:21;;;;;;;;;;;14.60;99.90;;;;;;5038721;28;19909;-89
2023/08/01 07:33:47;;;;;;;;;;;14.60;99.90;;;;;;5055187;28;19909;-89
2023/08/01 07:36:13;;;;;;;;;;;14.60;99.90;;;;;;5037942;28;19908;-90
2023/08/01 07:38:41;;;;;;;;;;;14.70;99.90;;;;;;5037076;28;19915;-90
2023/08/01 07:41:07;;;;;;;;;;;14.70;99.90;;;;;;5048305;28;19995;-89
2023/08/01 07:43:33;;;;;;;;;;;14.70;99.90;;;;;;5038792;28;19916;-90
2023/08/01 07:45:59;;;;;;;;;;;14.70;99.90;;;;;;5037687;28;19940;-88
2023/08/01 07:48:25;;;;;;;;;;;14.70;99.90;;;;;;5049886;28;20303;-91
2023/08/01 07:50:53;;;;;;;;;;;14.80;99.90;;;;;;5052459;28;19951;-89
2023/08/01 07:53:19;;;;;;;;;;;14.80;99.90;;;;;;5048064;28;20357;-90
2023/08/01 07:55:44;;;;;;;;;;;14.80;99.90;;;;;;5038056;28;20383;-89
2023/08/01 07:58:10;;;;;;;;;;;14.80;99.90;;;;;;5066389;28;19921;-88
2023/08/01 08:00:35;;;;;;;;;;;14.80;99.90;;;;;;5050787;28;19912;-90
2023/08/01 08:03:01;;;;;;;;;;;14.80;99.90;;;;;;5051295;28;20444;-89
2023/08/01 08:05:27;;;;;;;;;;;14.80;99.90;;;;;;5038587;28;19916;-89
2023/08/01 08:07:53;;;;;;;;;;;14.80;99.90;;;;;;5060189;28;19909;-90
2023/08/01 08:10:18;;;;;;;;;;;14.80;99.90;;;;;;5054209;28;19905;-89
2023/08/01 08:12:44;;;;;;;;;;;14.80;99.90;;;;;;5038360;28;19959;-88
2023/08/01 08:15:10;;;;;;;;;;;14.80;99.90;;;;;;5052864;28;20272;-88
2023/08/01 08:17:36;;;;;;;;;;;14.80;99.90;;;;;;5035769;28;20425;-89
2023/08/01 08:20:01;;;;;;;;;;;14.80;99.90;;;;;;5044146;28;19928;-89
2023/08/01 08:22:27;;;;;;;;;;;14.80;99.90;;;;;;5036363;28;19917;-88
2023/08/01 08:24:53;;;;;;;;;;;14.80;99.90;;;;;;5038338;28;19909;-88
2023/08/01 08:27:19;;;;;;;;;;;14.90;99.90;;;;;;5037626;28;19915;-90
2023/08/01 08:30:05;;;;;;;;;;;14.80;99.90;;;;;;5038231;28;19920;-91
2023/08/01 08:32:31;;;;;;;;;;;14.80;99.90;;;;;;5054781;28;19908;-88
2023/08/01 08:34:56;;;;;;;;;;;14.80;99.90;;;;;;5055001;28;20348;-89
2023/08/01 08:37:22;;;;;;;;;;;14.80;99.90;;;;;;5038108;28;20282;-89
2023/08/01 08:39:48;;;;;;;;;;;14.90;99.90;;;;;;5054231;28;19917;-89
2023/08/01 08:42:13;;;;;;;;;;;15.20;99.90;;;;;;5039258;28;19946;-89
2023/08/01 08:44:43;;;;;;;;;;;15.50;99.90;;;;;;5045459;28;19932;-90
2023/08/01 08:47:10;;;;;;;;;;;16.10;99.90;;;;;;5059067;28;20363;-87
2023/08/01 08:49:36;;;;;;;;;;;16.80;99.90;;;;;;5071516;28;20383;-88
2023/08/01 08:52:03;;;;;;;;;;;17.00;99.90;;;;;;5055946;28;19908;-87
2023/08/01 08:54:29;;;;;;;;;;;16.80;99.90;;;;;;5054892;28;20279;-89
2023/08/01 08:56:55;;;;;;;;;;;16.80;99.90;;;;;;5037404;28;20367;-88
2023/08/01 08:59:21;;;;;;;;;;;16.80;99.90;;;;;;5060665;28;19908;-88
2023/08/01 09:01:47;;;;;;;;;;;16.70;99.90;;;;;;5037842;28;19963;-89
2023/08/01 09:04:13;;;;;;;;;;;16.60;99.90;;;;;;5053922;28;19913;-88
2023/08/01 09:06:45;;;;;;;;;;;16.30;99.90;;;;;;5053551;28;19909;-87
2023/08/01 09:09:12;;;;;;;;;;;16.00;99.90;;;;;;5037566;28;19908;-87
2023/08/01 09:11:39;;;;;;;;;;;16.10;99.90;;;;;;5037712;28;19991;-87
2023/08/01 09:14:05;;;;;;;;;;;16.00;99.90;;;;;;5037325;28;20322;-88
2023/08/01 09:16:32;;;;;;;;;;;15.90;99.90;;;;;;5055681;28;19909;-89
2023/08/01 09:18:58;;;;;;;;;;;15.80;99.90;;;;;;5037545;28;19908;-87
2023/08/01 09:21:23;;;;;;;;;;;15.70;99.90;;;;;;5037155;28;19932;-87
2023/08/01 09:23:49;;;;;;;;;;;15.60;99.90;;;;;;5037059;28;19912;-88
2023/08/01 09:26:19;;;;;;;;;;;15.50;99.90;;;;;;5036202;28;19954;-87
2023/08/01 09:28:55;;;;;;;;;;;15.60;99.90;;;;;;5037479;28;19916;-93
2023/08/01 09:31:26;;;;;;;;;;;15.40;99.90;;;;;;5068506;28;19908;-89
2023/08/01 09:33:51;;;;;;;;;;;14.70;99.90;;;;;;5036288;28;19909;-90
2023/08/01 09:36:21;;;;;;;;;;;14.20;99.90;;;;;;5053180;28;19963;-88
2023/08/01 09:38:46;;;;;;;;;;;13.90;99.90;;;;;;5035677;28;19947;-90
2023/08/01 09:41:17;;;;;;;;;;;13.90;99.90;;;;;;5039050;28;19913;-89
2023/08/01 09:43:42;;;;;;;;;;;14.00;99.90;;;;;;5037546;28;19920;-90
2023/08/01 09:46:08;;;;;;;;;;;14.10;99.90;;;;;;5036332;28;20360;-89
2023/08/01 09:48:34;;;;;;;;;;;14.30;99.90;;;;;;5048421;28;19909;-89
2023/08/01 09:51:06;;;;;;;;;;;14.60;99.90;;;;;;5036531;28;19928;-91
2023/08/01 09:53:32;;;;;;;;;;;14.80;99.90;;;;;;5050188;28;19909;-90
2023/08/01 09:56:04;;;;;;;;;;;15.40;99.90;;;;;;5036821;28;19905;-89
2023/08/01 09:58:32;;;;;;;;;;;16.00;99.90;;;;;;5051739;28;20286;-90
2023/08/01 10:00:57;;;;;;;;;;;16.80;99.90;;;;;;5037402;28;20271;-91
2023/08/01 10:03:23;;;;;;;;;;;17.70;99.90;;;;;;5035080;28;19913;-91
2023/08/01 10:05:53;;;;;;;;;;;18.30;99.90;;;;;;5037295;28;20414;-92
2023/08/01 10:08:19;;;;;;;;;;;18.50;99.90;;;;;;5034157;28;19967;-93
2023/08/01 10:10:46;;;;;;;;;;;18.40;99.90;;;;;;5036842;28;19913;-90
2023/08/01 10:13:13;;;;;;;;;;;18.80;99.90;;;;;;5036223;28;20808;-88
2023/08/01 10:15:39;;;;;;;;;;;18.40;99.90;;;;;;5052258;28;19924;-89
2023/08/01 10:18:04;;;;;;;;;;;18.20;99.90;;;;;;5036955;28;20011;-91
2023/08/01 10:20:31;;;;;;;;;;;18.10;99.90;;;;;;5035552;28;19940;-90
2023/08/01 10:22:57;;;;;;;;;;;18.00;99.90;;;;;;5037409;28;19913;-90
2023/08/01 10:25:23;;;;;;;;;;;18.00;99.90;;;;;;5036356;28;20006;-93
2023/08/01 10:28:02;;;;;;;;;;;18.10;99.90;;;;;;5036374;28;19908;-88
2023/08/01 10:30:28;;;;;;;;;;;18.20;99.90;;;;;;5069473;28;19909;-90
2023/08/01 10:32:54;;;;;;;;;;;18.40;99.90;;;;;;5036517;28;20267;-88
2023/08/01 10:35:42;;;;;;;;;;;18.90;99.90;;;;;;5036162;28;20279;-89
2023/08/01 10:38:09;;;;;;;;;;;18.90;99.90;;;;;;5071552;28;19909;-88
2023/08/01 10:40:38;;;;;;;;;;;18.70;99.90;;;;;;5056892;28;20307;-89
2023/08/01 10:43:04;;;;;;;;;;;18.20;99.90;;;;;;5040747;28;19913;-90
2023/08/01 10:45:30;;;;;;;;;;;18.30;99.90;;;;;;5057504;28;19965;-89
2023/08/01 10:48:15;;;;;;;;;;;18.60;99.90;;;;;;5040261;28;20042;-88
2023/08/01 10:50:41;;;;;;;;;;;18.90;99.90;;;;;;5040065;28;19908;-88
2023/08/01 10:53:08;;;;;;;;;;;19.20;99.90;;;;;;5057399;28;20275;-88
2023/08/01 10:55:44;;;;;;;;;;;19.50;99.90;;;;;;5057150;28;19904;-89
2023/08/01 10:58:10;;;;;;;;;;;19.70;99.90;;;;;;5085351;28;19908;-88
2023/08/01 11:00:35;;;;;;;;;;;19.60;99.90;;;;;;5040251;28;19909;-88
2023/08/01 11:03:01;;;;;;;;;;;19.30;99.90;;;;;;5056894;28;19919;-89
2023/08/01 11:05:29;;;;;;;;;;;19.50;99.90;;;;;;5039479;28;19916;-88
2023/08/01 11:08:02;;;;;;;;;;;19.30;99.90;;;;;;5039761;28;20333;-87
2023/08/01 11:10:28;;;;;;;;;;;19.20;99.90;;;;;;5056489;28;19909;-89
2023/08/01 11:12:54;;;;;;;;;;;19.70;99.90;;;;;;5039815;28;19954;-88
2023/08/01 11:15:20;;;;;;;;;;;19.70;99.90;;;;;;5073164;28;19908;-89
2023/08/01 11:18:21;;;;;;;;;;;20.10;99.90;;;;;;5037358;28;19916;-87
2023/08/01 11:20:46;;;;;;;;;;;20.10;99.90;;;;;;5055775;28;19915;-88
2023/08/01 11:23:12;;;;;;;;;;;20.00;99.90;;;;;;5039259;28;20352;-88
2023/08/01 11:25:43;;;;;;;;;;;20.40;99.90;;;;;;5039418;28;19908;-88
2023/08/01 11:28:09;;;;;;;;;;;21.10;99.90;;;;;;5039491;28;19948;-88
2023/08/01 11:30:35;;;;;;;;;;;20.90;99.90;;;;;;5038987;28;19916;-89
2023/08/01 11:33:02;;;;;;;;;;;20.30;99.90;;;;;;5039797;28;19909;-88
2023/08/01 11:35:28;;;;;;;;;;;20.20;99.90;;;;;;5055378;28;19909;-88
2023/08/01 11:38:29;;;;;;;;;;;19.40;99.90;;;;;;5038953;28;19908;-87
2023/08/01 11:40:56;;;;;;;;;;;18.70;99.90;;;;;;5064420;28;19920;-87
2023/08/01 11:43:22;;;;;;;;;;;18.80;99.90;;;;;;5038904;28;20302;-87
2023/08/01 11:45:48;;;;;;;;;;;18.80;99.90;;;;;;5051435;28;19915;-87
2023/08/01 11:48:14;;;;;;;;;;;18.70;99.90;;;;;;5053479;28;19916;-89
2023/08/01 11:50:40;;;;;;;;;;;18.10;99.90;;;;;;5037674;28;19905;-88
2023/08/01 11:53:05;;;;;;;;;;;17.30;99.90;;;;;;5036343;28;19916;-87
2023/08/01 11:55:34;;;;;;;;;;;16.70;99.90;;;;;;5085866;28;20371;-88
2023/08/01 11:58:01;;;;;;;;;;;16.40;99.90;;;;;;5038339;28;19908;-88
2023/08/01 12:00:27;;;;;;;;;;;16.50;99.90;;;;;;5055007;28;19905;-87
2023/08/01 12:03:07;;;;;;;;;;;16.90;99.90;;;;;;5054006;28;20279;-89
2023/08/01 12:05:33;;;;;;;;;;;17.70;99.90;;;;;;5038035;28;19916;-87
2023/08/01 12:08:07;;;;;;;;;;;18.40;99.90;;;;;;5037593;28;19909;-88
2023/08/01 12:10:40;;;;;;;;;;;18.80;99.90;;;;;;5052326;28;19944;-87
2023/08/01 12:13:06;;;;;;;;;;;19.10;99.90;;;;;;5034363;28;19909;-89
2023/08/01 12:15:31;;;;;;;;;;;19.20;99.90;;;;;;5051955;28;19915;-87
2023/08/01 12:17:57;;;;;;;;;;;19.40;99.90;;;;;;5037434;28;20398;-87
2023/08/01 12:20:22;;;;;;;;;;;19.40;99.90;;;;;;5053926;28;19958;-87
2023/08/01 12:23:16;;;;;;;;;;;19.50;99.90;;;;;;5028721;28;19971;-87
2023/08/01 12:25:42;;;;;;;;;;;19.60;99.90;;;;;;5051476;28;19909;-88
2023/08/01 12:28:07;;;;;;;;;;;19.90;99.90;;;;;;5050900;28;20362;-88
2023/08/01 12:30:33;;;;;;;;;;;20.00;99.90;;;;;;5052712;28;19908;-87
2023/08/01 12:33:00;;;;;;;;;;;19.90;99.90;;;;;;5052246;28;19916;-87
2023/08/01 12:35:26;;;;;;;;;;;19.30;99.90;;;;;;5042027;28;19909;-87
2023/08/01 12:37:52;;;;;;;;;;;19.00;99.90;;;;;;5053425;28;20883;-87
2023/08/01 12:40:18;;;;;;;;;;;18.70;99.90;;;;;;5037040;28;20019;-86
2023/08/01 12:42:43;;;;;;;;;;;18.70;99.90;;;;;;5036620;28;20000;-87
2023/08/01 12:45:09;;;;;;;;;;;18.60;99.90;;;;;;5033928;28;19999;-87
2023/08/01 12:47:38;;;;;;;;;;;18.70;99.90;;;;;;5051740;28;19947;-89
2023/08/01 12:50:04;;;;;;;;;;;18.60;99.90;;;;;;5035575;28;19908;-87
2023/08/01 12:52:29;;;;;;;;;;;18.80;99.90;;;;;;5050631;28;20253;-86
2023/08/01 12:54:55;;;;;;;;;;;18.90;99.90;;;;;;5086249;28;19909;-89
2023/08/01 12:57:21;;;;;;;;;;;19.50;99.90;;;;;;5048982;28;20272;-87
2023/08/01 12:59:48;;;;;;;;;;;20.50;99.90;;;;;;5050887;28;19999;-87
2023/08/01 13:02:14;;;;;;;;;;;21.20;99.90;;;;;;5033832;28;19957;-87
2023/08/01 13:04:39;;;;;;;;;;;21.10;99.90;;;;;;5042521;28;19917;-88
2023/08/01 13:07:05;;;;;;;;;;;21.50;99.90;;;;;;5035726;28;19909;-87
2023/08/01 13:09:31;;;;;;;;;;;22.20;99.90;;;;;;5044203;28;19909;-88
2023/08/01 13:12:00;;;;;;;;;;;22.60;99.90;;;;;;5051099;28;19913;-87
2023/08/01 13:14:26;;;;;;;;;;;22.60;99.90;;;;;;5035857;28;20002;-87
2023/08/01 13:16:52;;;;;;;;;;;22.30;99.90;;;;;;5052189;28;19912;-86
2023/08/01 13:19:18;;;;;;;;;;;22.00;99.90;;;;;;5035509;28;19919;-87
2023/08/01 13:21:43;;;;;;;;;;;21.40;99.90;;;;;;5035965;28;19909;-87
2023/08/01 13:24:09;;;;;;;;;;;21.10;99.90;;;;;;5035194;28;19916;-87
2023/08/01 13:26:36;;;;;;;;;;;20.90;99.90;;;;;;5041216;28;19921;-87
2023/08/01 13:29:01;;;;;;;;;;;20.50;99.90;;;;;;5065913;28;19959;-87
2023/08/01 13:31:27;;;;;;;;;;;20.30;99.90;;;;;;5043689;28;19937;-87
2023/08/01 13:33:53;;;;;;;;;;;20.20;99.90;;;;;;5050385;28;19932;-87
2023/08/01 13:36:19;;;;;;;;;;;20.30;99.90;;;;;;5029235;28;19909;-87
2023/08/01 13:38:44;;;;;;;;;;;20.40;99.90;;;;;;5049807;28;19991;-87
2023/08/01 13:41:10;;;;;;;;;;;20.80;99.90;;;;;;5034339;28;19920;-86
2023/08/01 13:43:35;;;;;;;;;;;20.70;99.90;;;;;;5041016;28;20000;-86
2023/08/01 13:46:07;;;;;;;;;;;20.60;99.90;;;;;;5052293;28;19916;-87
2023/08/01 13:48:33;;;;;;;;;;;20.50;99.90;;;;;;5059000;28;19909;-87
2023/08/01 13:50:58;;;;;;;;;;;20.50;99.90;;;;;;5049949;28;19920;-87
2023/08/01 13:53:24;;;;;;;;;;;20.60;99.90;;;;;;5052180;28;20303;-86
2023/08/01 13:55:50;;;;;;;;;;;20.50;99.90;;;;;;5049487;28;19913;-87
2023/08/01 13:58:15;;;;;;;;;;;21.10;99.90;;;;;;5035817;28;19912;-86
2023/08/01 14:00:41;;;;;;;;;;;21.30;99.90;;;;;;5029520;28;20015;-83
2023/08/01 14:03:22;;;;;;;;;;;20.90;99.90;;;;;;5034908;28;19917;-87
2023/08/01 14:05:47;;;;;;;;;;;21.00;99.90;;;;;;5033702;28;19909;-85
2023/08/01 14:08:13;;;;;;;;;;;21.20;99.90;;;;;;5033063;28;20284;-86
2023/08/01 14:10:38;;;;;;;;;;;21.10;99.90;;;;;;5063456;28;19909;-87
2023/08/01 14:13:04;;;;;;;;;;;21.20;99.90;;;;;;5048033;28;19919;-87
2023/08/01 14:15:30;;;;;;;;;;;21.70;99.90;;;;;;5050877;28;20352;-87
2023/08/01 14:17:55;;;;;;;;;;;21.50;99.90;;;;;;5035709;28;19905;-87
2023/08/01 14:20:21;;;;;;;;;;;21.50;99.90;;;;;;5036006;28;19916;-85
2023/08/01 14:22:46;;;;;;;;;;;21.20;99.90;;;;;;5052050;28;19921;-86